sensor_id;sensor_type;location;lat;lon;timestamp;pressure;altitude;pressure_sealevel;temperature;humidity
34712;BME280;20941;42.408;25.634;2023-02-01T00:02:19;99614.13;;;2.08;100.00
34712;BME280;20941;42.408;25.634;2023-02-01T00:04:45;99622.19;;;2.10;100.00
34712;BME280;20941;42.408;25.634;2023-02-01T00:07:10;99591.16;;;1.96;100.00
34712;BME280;20941;42.408;25.634;2023-02-01T00:09:36;99596.28;;;2.04;99.54
34712;BME280;20941;42.408;25.634;2023-02-01T00:12:01;99604.09;;;2.07;98.91
34712;BME280;20941;42.408;25.634;2023-02-01T00:14:28;99628.53;;;2.28;97.80
34712;BME280;20941;42.408;25.634;2023-02-01T00:16:54;99612.09;;;2.21;96.80
34712;BME280;20941;42.408;25.634;2023-02-01T00:19:20;99626.09;;;2.31;95.65
34712;BME280;20941;42.408;25.634;2023-02-01T00:21:46;99613.25;;;2.25;96.12
34712;BME280;20941;42.408;25.634;2023-02-01T00:24:11;99628.72;;;2.21;96.96
34712;BME280;20941;42.408;25.634;2023-02-01T00:26:42;99623.94;;;1.99;100.00
34712;BME280;20941;42.408;25.634;2023-02-01T00:29:16;99627.53;;;1.83;100.00
34712;BME280;20941;42.408;25.634;2023-02-01T00:31:43;99624.19;;;1.81;100.00
34712;BME280;20941;42.408;25.634;2023-02-01T00:34:14;99633.53;;;1.74;100.00
34712;BME280;20941;42.408;25.634;2023-02-01T00:36:41;99629.97;;;1.62;100.00
34712;BME280;20941;42.408;25.634;2023-02-01T00:39:06;99624.84;;;1.54;100.00
34712;BME280;20941;42.408;25.634;2023-02-01T00:41:32;99631.97;;;1.50;100.00
34712;BME280;20941;42.408;25.634;2023-02-01T00:43:58;99623.97;;;1.36;100.00
34712;BME280;20941;42.408;25.634;2023-02-01T00:46:24;99650.03;;;1.52;100.00
34712;BME280;20941;42.408;25.634;2023-02-01T00:48:50;99631.88;;;1.44;100.00
34712;BME280;20941;42.408;25.634;2023-02-01T00:51:18;99633.16;;;1.25;100.00
34712;BME280;20941;42.408;25.634;2023-02-01T00:53:44;99638.06;;;1.35;100.00
34712;BME280;20941;42.408;25.634;2023-02-01T00:56:11;99630.59;;;1.35;100.00
34712;BME280;20941;42.408;25.634;2023-02-01T00:58:36;99640.69;;;1.41;100.00
34712;BME280;20941;42.408;25.634;2023-02-01T01:01:05;99640.78;;;1.47;100.00
34712;BME280;20941;42.408;25.634;2023-02-01T01:03:32;99624.81;;;1.37;100.00
34712;BME280;20941;42.408;25.634;2023-02-01T01:06:05;99636.84;;;1.42;100.00
34712;BME280;20941;42.408;25.634;2023-02-01T01:08:30;99626.84;;;1.41;100.00
34712;BME280;20941;42.408;25.634;2023-02-01T01:10:56;99621.28;;;1.41;100.00
34712;BME280;20941;42.408;25.634;2023-02-01T01:13:22;99634.94;;;1.60;100.00
34712;BME280;20941;42.408;25.634;2023-02-01T01:15:47;99632.59;;;1.69;100.00
34712;BME280;20941;42.408;25.634;2023-02-01T01:18:13;99618.47;;;1.70;100.00
34712;BME280;20941;42.408;25.634;2023-02-01T01:20:40;99616.28;;;1.89;100.00
34712;BME280;20941;42.408;25.634;2023-02-01T01:23:07;99627.72;;;1.93;100.00
34712;BME280;20941;42.408;25.634;2023-02-01T01:25:37;99622.34;;;1.86;100.00
34712;BME280;20941;42.408;25.634;2023-02-01T01:28:02;99624.28;;;1.86;100.00
34712;BME280;20941;42.408;25.634;2023-02-01T01:30:28;99606.72;;;1.63;100.00
34712;BME280;20941;42.408;25.634;2023-02-01T01:32:53;99613.56;;;1.60;100.00
34712;BME280;20941;42.408;25.634;2023-02-01T01:35:19;99617.44;;;1.42;100.00
34712;BME280;20941;42.408;25.634;2023-02-01T01:37:44;99629.88;;;1.40;100.00
34712;BME280;20941;42.408;25.634;2023-02-01T01:40:10;99612.84;;;1.19;100.00
34712;BME280;20941;42.408;25.634;2023-02-01T01:42:38;99631.50;;;1.24;100.00
34712;BME280;20941;42.408;25.634;2023-02-01T01:45:08;99632.06;;;1.26;100.00
34712;BME280;20941;42.408;25.634;2023-02-01T01:47:47;99619.72;;;1.17;100.00
34712;BME280;20941;42.408;25.634;2023-02-01T01:50:18;99611.78;;;1.08;100.00
34712;BME280;20941;42.408;25.634;2023-02-01T01:52:49;99633.16;;;1.25;100.00
34712;BME280;20941;42.408;25.634;2023-02-01T01:55:18;99627.28;;;1.21;100.00
34712;BME280;20941;42.408;25.634;2023-02-01T01:57:50;99614.66;;;1.14;100.00
34712;BME280;20941;42.408;25.634;2023-02-01T02:00:19;99590.38;;;1.04;100.00
34712;BME280;20941;42.408;25.634;2023-02-01T02:02:47;99630.25;;;1.32;100.00
34712;BME280;20941;42.408;25.634;2023-02-01T02:05:18;99624.97;;;1.30;100.00
34712;BME280;20941;42.408;25.634;2023-02-01T02:07:46;99625.53;;;1.32;100.00
34712;BME280;20941;42.408;25.634;2023-02-01T02:10:14;99614.22;;;1.34;100.00
34712;BME280;20941;42.408;25.634;2023-02-01T02:12:42;99595.56;;;1.29;100.00
34712;BME280;20941;42.408;25.634;2023-02-01T02:15:10;99626.09;;;1.46;100.00
34712;BME280;20941;42.408;25.634;2023-02-01T02:18:01;99615.44;;;1.55;100.00
34712;BME280;20941;42.408;25.634;2023-02-01T02:20:52;99621.88;;;1.60;100.00
34712;BME280;20941;42.408;25.634;2023-02-01T02:34:28;99615.13;;;1.68;100.00
34712;BME280;20941;42.408;25.634;2023-02-01T02:43:18;99611.91;;;1.76;100.00
34712;BME280;20941;42.408;25.634;2023-02-01T02:45:47;99613.44;;;1.67;100.00
34712;BME280;20941;42.408;25.634;2023-02-01T02:49:43;99605.34;;;1.83;100.00
34712;BME280;20941;42.408;25.634;2023-02-01T02:54:43;99609.41;;;1.92;99.93
34712;BME280;20941;42.408;25.634;2023-02-01T02:57:24;99614.69;;;1.93;100.00
34712;BME280;20941;42.408;25.634;2023-02-01T03:00:13;99613.66;;;1.83;100.00
34712;BME280;20941;42.408;25.634;2023-02-01T03:02:58;99619.97;;;1.61;100.00
34712;BME280;20941;42.408;25.634;2023-02-01T03:05:45;99599.25;;;1.35;100.00
34712;BME280;20941;42.408;25.634;2023-02-01T03:15:59;99642.91;;;0.87;100.00
34712;BME280;20941;42.408;25.634;2023-02-01T03:18:29;99643.97;;;0.57;100.00
34712;BME280;20941;42.408;25.634;2023-02-01T03:20:58;99615.47;;;0.44;100.00
34712;BME280;20941;42.408;25.634;2023-02-01T03:23:28;99621.72;;;0.52;100.00
34712;BME280;20941;42.408;25.634;2023-02-01T03:25:57;99623.63;;;0.39;100.00
34712;BME280;20941;42.408;25.634;2023-02-01T03:28:25;99633.84;;;0.51;100.00
34712;BME280;20941;42.408;25.634;2023-02-01T03:30:53;99633.09;;;0.67;100.00
34712;BME280;20941;42.408;25.634;2023-02-01T03:33:21;99627.25;;;0.52;100.00
34712;BME280;20941;42.408;25.634;2023-02-01T03:41:51;99623.34;;;0.76;100.00
34712;BME280;20941;42.408;25.634;2023-02-01T03:44:31;99633.53;;;0.88;100.00
34712;BME280;20941;42.408;25.634;2023-02-01T03:47:08;99628.59;;;0.90;100.00
34712;BME280;20941;42.408;25.634;2023-02-01T03:49:44;99628.69;;;0.95;100.00
34712;BME280;20941;42.408;25.634;2023-02-01T03:52:17;99626.03;;;1.00;100.00
34712;BME280;20941;42.408;25.634;2023-02-01T03:54:46;99604.66;;;0.84;100.00
34712;BME280;20941;42.408;25.634;2023-02-01T03:57:14;99645.28;;;1.07;100.00
34712;BME280;20941;42.408;25.634;2023-02-01T03:59:44;99644.34;;;1.01;100.00
34712;BME280;20941;42.408;25.634;2023-02-01T04:02:10;99619.09;;;0.86;100.00
34712;BME280;20941;42.408;25.634;2023-02-01T04:04:36;99641.72;;;0.94;100.00
34712;BME280;20941;42.408;25.634;2023-02-01T04:07:02;99624.03;;;0.84;100.00
34712;BME280;20941;42.408;25.634;2023-02-01T04:09:28;99626.47;;;0.80;100.00
34712;BME280;20941;42.408;25.634;2023-02-01T04:11:53;99639.91;;;0.88;100.00
34712;BME280;20941;42.408;25.634;2023-02-01T04:14:19;99623.34;;;0.76;100.00
34712;BME280;20941;42.408;25.634;2023-02-01T04:16:45;99606.41;;;0.61;100.00
34712;BME280;20941;42.408;25.634;2023-02-01T04:19:10;99634.19;;;0.66;100.00
34712;BME280;20941;42.408;25.634;2023-02-01T04:21:36;99648.28;;;0.53;100.00
34712;BME280;20941;42.408;25.634;2023-02-01T04:24:02;99651.19;;;0.34;100.00
34712;BME280;20941;42.408;25.634;2023-02-01T04:26:27;99656.50;;;0.24;100.00
34712;BME280;20941;42.408;25.634;2023-02-01T04:28:53;99649.88;;;0.13;100.00
34712;BME280;20941;42.408;25.634;2023-02-01T04:31:19;99637.94;;;-0.11;100.00
34712;BME280;20941;42.408;25.634;2023-02-01T04:33:54;99670.66;;;-0.08;100.00
34712;BME280;20941;42.408;25.634;2023-02-01T04:36:21;99682.38;;;-0.25;100.00
34712;BME280;20941;42.408;25.634;2023-02-01T04:38:51;99672.75;;;-0.34;100.00
34712;BME280;20941;42.408;25.634;2023-02-01T04:41:16;99684.84;;;-0.47;100.00
34712;BME280;20941;42.408;25.634;2023-02-01T04:43:49;99676.78;;;-0.49;100.00
34712;BME280;20941;42.408;25.634;2023-02-01T04:46:15;99679.28;;;-0.17;100.00
34712;BME280;20941;42.408;25.634;2023-02-01T04:48:41;99678.59;;;0.00;100.00
34712;BME280;20941;42.408;25.634;2023-02-01T04:51:07;99681.63;;;0.10;100.00
34712;BME280;20941;42.408;25.634;2023-02-01T04:53:33;99667.66;;;0.05;100.00
34712;BME280;20941;42.408;25.634;2023-02-01T04:55:58;99672.72;;;0.20;100.00
34712;BME280;20941;42.408;25.634;2023-02-01T04:58:24;99665.72;;;0.29;100.00
34712;BME280;20941;42.408;25.634;2023-02-01T05:00:49;99663.44;;;0.62;96.34
34712;BME280;20941;42.408;25.634;2023-02-01T05:03:15;99646.50;;;0.99;87.64
34712;BME280;20941;42.408;25.634;2023-02-01T05:05:41;99656.13;;;1.08;82.84
34712;BME280;20941;42.408;25.634;2023-02-01T05:08:06;99666.13;;;1.38;79.30
34712;BME280;20941;42.408;25.634;2023-02-01T05:10:32;99657.41;;;1.47;78.65
34712;BME280;20941;42.408;25.634;2023-02-01T05:12:57;99666.47;;;1.42;78.85
34712;BME280;20941;42.408;25.634;2023-02-01T05:15:42;99672.25;;;1.40;79.76
34712;BME280;20941;42.408;25.634;2023-02-01T05:18:07;99657.81;;;1.38;83.23
34712;BME280;20941;42.408;25.634;2023-02-01T05:20:33;99668.34;;;1.24;87.72
34712;BME280;20941;42.408;25.634;2023-02-01T05:22:58;99672.22;;;1.11;90.05
34712;BME280;20941;42.408;25.634;2023-02-01T05:25:24;99678.91;;;0.99;93.08
34712;BME280;20941;42.408;25.634;2023-02-01T05:27:49;99681.34;;;0.83;95.77
34712;BME280;20941;42.408;25.634;2023-02-01T05:30:15;99689.28;;;0.79;97.62
34712;BME280;20941;42.408;25.634;2023-02-01T05:32:41;99676.31;;;0.68;99.05
34712;BME280;20941;42.408;25.634;2023-02-01T05:35:07;99688.72;;;0.54;100.00
34712;BME280;20941;42.408;25.634;2023-02-01T05:37:33;99703.41;;;0.42;100.00
34712;BME280;20941;42.408;25.634;2023-02-01T05:39:58;99698.59;;;0.50;100.00
34712;BME280;20941;42.408;25.634;2023-02-01T05:42:24;99695.47;;;0.58;100.00
34712;BME280;20941;42.408;25.634;2023-02-01T05:44:49;99691.00;;;0.57;100.00
34712;BME280;20941;42.408;25.634;2023-02-01T05:47:15;99681.25;;;0.66;100.00
34712;BME280;20941;42.408;25.634;2023-02-01T05:49:40;99668.75;;;0.52;100.00
34712;BME280;20941;42.408;25.634;2023-02-01T05:52:06;99677.63;;;0.54;100.00
34712;BME280;20941;42.408;25.634;2023-02-01T05:54:31;99712.66;;;0.60;100.00
34712;BME280;20941;42.408;25.634;2023-02-01T05:56:57;99705.31;;;0.54;100.00
34712;BME280;20941;42.408;25.634;2023-02-01T05:59:23;99711.81;;;0.71;100.00
34712;BME280;20941;42.408;25.634;2023-02-01T06:01:48;99687.75;;;0.60;100.00
34712;BME280;20941;42.408;25.634;2023-02-01T06:04:14;99709.38;;;0.87;100.00
34712;BME280;20941;42.408;25.634;2023-02-01T06:06:39;99696.00;;;0.95;100.00
34712;BME280;20941;42.408;25.634;2023-02-01T06:09:06;99696.63;;;0.86;100.00
34712;BME280;20941;42.408;25.634;2023-02-01T06:11:37;99709.97;;;1.01;100.00
34712;BME280;20941;42.408;25.634;2023-02-01T06:14:04;99704.22;;;0.90;100.00
34712;BME280;20941;42.408;25.634;2023-02-01T06:16:33;99697.47;;;0.86;100.00
34712;BME280;20941;42.408;25.634;2023-02-01T06:19:00;99703.38;;;0.90;97.69
34712;BME280;20941;42.408;25.634;2023-02-01T06:21:26;99691.44;;;0.89;94.00
34712;BME280;20941;42.408;25.634;2023-02-01T06:23:54;99724.13;;;1.16;91.21
34712;BME280;20941;42.408;25.634;2023-02-01T06:26:24;99696.59;;;1.09;90.68
34712;BME280;20941;42.408;25.634;2023-02-01T06:28:55;99693.09;;;1.14;89.26
34712;BME280;20941;42.408;25.634;2023-02-01T06:31:23;99714.72;;;1.29;89.08
34712;BME280;20941;42.408;25.634;2023-02-01T06:33:48;99727.94;;;1.39;88.98
34712;BME280;20941;42.408;25.634;2023-02-01T06:36:15;99738.31;;;1.32;88.80
34712;BME280;20941;42.408;25.634;2023-02-01T06:38:41;99730.47;;;1.40;89.62
34712;BME280;20941;42.408;25.634;2023-02-01T06:41:07;99718.38;;;1.47;90.18
34712;BME280;20941;42.408;25.634;2023-02-01T06:43:34;99723.47;;;1.67;90.76
34712;BME280;20941;42.408;25.634;2023-02-01T06:46:04;99729.78;;;1.62;89.10
34712;BME280;20941;42.408;25.634;2023-02-01T06:48:31;99729.38;;;1.70;89.44
34712;BME280;20941;42.408;25.634;2023-02-01T06:50:56;99743.84;;;1.72;90.09
34712;BME280;20941;42.408;25.634;2023-02-01T06:53:22;99718.56;;;1.57;91.32
34712;BME280;20941;42.408;25.634;2023-02-01T06:55:55;99739.09;;;1.56;93.07
34712;BME280;20941;42.408;25.634;2023-02-01T06:58:22;99741.81;;;1.68;93.60
34712;BME280;20941;42.408;25.634;2023-02-01T07:00:48;99756.22;;;1.53;94.99
34712;BME280;20941;42.408;25.634;2023-02-01T07:03:14;99754.13;;;1.60;97.01
34712;BME280;20941;42.408;25.634;2023-02-01T07:05:39;99746.22;;;1.81;97.24
34712;BME280;20941;42.408;25.634;2023-02-01T07:08:05;99714.94;;;1.68;97.30
34712;BME280;20941;42.408;25.634;2023-02-01T07:10:31;99729.63;;;1.98;98.53
34712;BME280;20941;42.408;25.634;2023-02-01T07:12:59;99751.25;;;2.13;96.48
34712;BME280;20941;42.408;25.634;2023-02-01T07:15:24;99733.63;;;1.90;94.23
34712;BME280;20941;42.408;25.634;2023-02-01T07:17:50;99753.03;;;1.90;95.62
34712;BME280;20941;42.408;25.634;2023-02-01T07:20:16;99724.03;;;1.81;94.65
34712;BME280;20941;42.408;25.634;2023-02-01T07:22:42;99769.56;;;2.14;95.20
34712;BME280;20941;42.408;25.634;2023-02-01T07:25:08;99768.34;;;2.38;93.27
34712;BME280;20941;42.408;25.634;2023-02-01T07:27:37;99777.56;;;2.61;87.24
34712;BME280;20941;42.408;25.634;2023-02-01T07:30:04;99763.47;;;2.80;84.65
34712;BME280;20941;42.408;25.634;2023-02-01T07:32:30;99759.19;;;2.94;83.23
34712;BME280;20941;42.408;25.634;2023-02-01T07:34:57;99761.34;;;3.26;80.44
34712;BME280;20941;42.408;25.634;2023-02-01T07:37:22;99751.69;;;3.56;73.55
34712;BME280;20941;42.408;25.634;2023-02-01T07:39:50;99758.78;;;3.91;75.16
34712;BME280;20941;42.408;25.634;2023-02-01T07:42:16;99771.50;;;4.14;77.33
34712;BME280;20941;42.408;25.634;2023-02-01T07:44:41;99775.59;;;4.34;76.35
34712;BME280;20941;42.408;25.634;2023-02-01T07:47:07;99773.31;;;4.58;75.74
34712;BME280;20941;42.408;25.634;2023-02-01T07:49:32;99759.28;;;4.43;74.05
34712;BME280;20941;42.408;25.634;2023-02-01T07:51:58;99784.41;;;4.86;73.85
34712;BME280;20941;42.408;25.634;2023-02-01T07:54:23;99779.78;;;5.02;72.71
34712;BME280;20941;42.408;25.634;2023-02-01T07:56:49;99785.75;;;4.83;73.75
34712;BME280;20941;42.408;25.634;2023-02-01T07:59:14;99768.03;;;4.94;74.15
34712;BME280;20941;42.408;25.634;2023-02-01T08:01:41;99783.44;;;5.07;73.42
34712;BME280;20941;42.408;25.634;2023-02-01T08:04:09;99784.34;;;5.18;74.85
34712;BME280;20941;42.408;25.634;2023-02-01T08:06:36;99781.66;;;5.34;73.10
34712;BME280;20941;42.408;25.634;2023-02-01T08:09:02;99789.72;;;5.30;70.34
34712;BME280;20941;42.408;25.634;2023-02-01T08:11:29;99789.44;;;5.37;69.83
34712;BME280;20941;42.408;25.634;2023-02-01T08:13:55;99773.25;;;5.28;64.81
34712;BME280;20941;42.408;25.634;2023-02-01T08:16:22;99759.63;;;5.37;60.63
34712;BME280;20941;42.408;25.634;2023-02-01T08:18:48;99763.28;;;5.48;59.00
34712;BME280;20941;42.408;25.634;2023-02-01T08:21:16;99769.25;;;5.77;58.61
34712;BME280;20941;42.408;25.634;2023-02-01T08:23:43;99777.94;;;5.81;58.37
34712;BME280;20941;42.408;25.634;2023-02-01T08:28:45;99762.88;;;5.19;56.79
34712;BME280;20941;42.408;25.634;2023-02-01T08:31:13;99767.91;;;5.22;57.40
34712;BME280;20941;42.408;25.634;2023-02-01T08:33:43;99770.66;;;5.17;57.11
34712;BME280;20941;42.408;25.634;2023-02-01T08:36:10;99776.84;;;5.24;58.22
34712;BME280;20941;42.408;25.634;2023-02-01T08:38:37;99779.69;;;5.39;56.22
34712;BME280;20941;42.408;25.634;2023-02-01T08:41:09;99777.88;;;5.66;58.47
34712;BME280;20941;42.408;25.634;2023-02-01T08:43:35;99793.47;;;5.61;56.62
34712;BME280;20941;42.408;25.634;2023-02-01T08:46:01;99784.06;;;5.73;57.56
34712;BME280;20941;42.408;25.634;2023-02-01T08:48:26;99786.34;;;5.91;57.91
34712;BME280;20941;42.408;25.634;2023-02-01T08:51:12;99780.69;;;5.71;57.58
34712;BME280;20941;42.408;25.634;2023-02-01T08:53:39;99793.03;;;5.85;58.98
34712;BME280;20941;42.408;25.634;2023-02-01T08:56:06;99768.44;;;5.77;61.45
34712;BME280;20941;42.408;25.634;2023-02-01T08:58:32;99777.94;;;5.81;63.97
34712;BME280;20941;42.408;25.634;2023-02-01T09:01:06;99800.00;;;5.83;64.99
34712;BME280;20941;42.408;25.634;2023-02-01T09:03:31;99764.34;;;5.37;66.29
34712;BME280;20941;42.408;25.634;2023-02-01T09:06:08;99779.63;;;5.19;67.79
34712;BME280;20941;42.408;25.634;2023-02-01T09:08:34;99791.13;;;5.33;67.53
34712;BME280;20941;42.408;25.634;2023-02-01T09:11:10;99787.28;;;5.49;69.70
34712;BME280;20941;42.408;25.634;2023-02-01T09:13:36;99767.53;;;5.56;67.51
34712;BME280;20941;42.408;25.634;2023-02-01T09:16:03;99776.59;;;5.94;65.60
34712;BME280;20941;42.408;25.634;2023-02-01T09:18:29;99771.81;;;5.84;60.46
34712;BME280;20941;42.408;25.634;2023-02-01T09:20:54;99771.00;;;5.89;61.88
34712;BME280;20941;42.408;25.634;2023-02-01T09:23:20;99760.13;;;5.92;62.08
34712;BME280;20941;42.408;25.634;2023-02-01T09:25:46;99776.38;;;6.16;63.16
34712;BME280;20941;42.408;25.634;2023-02-01T09:28:13;99761.84;;;5.99;62.19
34712;BME280;20941;42.408;25.634;2023-02-01T09:30:39;99755.16;;;6.05;62.57
34712;BME280;20941;42.408;25.634;2023-02-01T09:33:04;99763.75;;;5.98;62.20
34712;BME280;20941;42.408;25.634;2023-02-01T09:35:30;99762.88;;;5.87;62.34
34712;BME280;20941;42.408;25.634;2023-02-01T09:37:55;99748.22;;;5.49;61.29
34712;BME280;20941;42.408;25.634;2023-02-01T09:40:21;99746.50;;;5.38;63.26
34712;BME280;20941;42.408;25.634;2023-02-01T09:48:22;99740.53;;;5.87;62.45
34712;BME280;20941;42.408;25.634;2023-02-01T09:50:55;99740.09;;;6.06;63.25
34712;BME280;20941;42.408;25.634;2023-02-01T09:53:43;99744.56;;;6.17;61.05
34712;BME280;20941;42.408;25.634;2023-02-01T09:56:22;99736.94;;;5.92;61.11
34712;BME280;20941;42.408;25.634;2023-02-01T09:58:56;99735.53;;;5.79;62.49
34712;BME280;20941;42.408;25.634;2023-02-01T10:01:26;99737.88;;;6.13;62.33
34712;BME280;20941;42.408;25.634;2023-02-01T10:04:01;99744.00;;;6.20;61.67
34712;BME280;20941;42.408;25.634;2023-02-01T10:09:03;99732.28;;;6.29;62.26
34712;BME280;20941;42.408;25.634;2023-02-01T10:22:15;99712.72;;;6.70;64.56
34712;BME280;20941;42.408;25.634;2023-02-01T10:24:59;99711.81;;;6.95;62.93
34712;BME280;20941;42.408;25.634;2023-02-01T10:27:35;99704.56;;;6.89;61.60
34712;BME280;20941;42.408;25.634;2023-02-01T10:30:25;99698.41;;;6.97;62.12
34712;BME280;20941;42.408;25.634;2023-02-01T10:32:56;99682.13;;;7.10;62.75
34712;BME280;20941;42.408;25.634;2023-02-01T10:35:31;99680.78;;;7.02;61.80
34712;BME280;20941;42.408;25.634;2023-02-01T10:38:01;99675.72;;;7.09;61.07
34712;BME280;20941;42.408;25.634;2023-02-01T10:40:29;99658.34;;;7.12;61.55
34712;BME280;20941;42.408;25.634;2023-02-01T10:43:00;99682.38;;;7.29;61.77
34712;BME280;20941;42.408;25.634;2023-02-01T10:45:32;99663.84;;;7.43;60.98
34712;BME280;20941;42.408;25.634;2023-02-01T10:48:00;99664.94;;;7.47;61.49
34712;BME280;20941;42.408;25.634;2023-02-01T10:50:38;99673.91;;;7.39;61.28
34712;BME280;20941;42.408;25.634;2023-02-01T10:53:13;99675.31;;;7.42;60.08
34712;BME280;20941;42.408;25.634;2023-02-01T11:00:53;99660.72;;;7.95;57.77
34712;BME280;20941;42.408;25.634;2023-02-01T11:03:39;99658.41;;;8.07;58.00
34712;BME280;20941;42.408;25.634;2023-02-01T11:06:28;99646.31;;;8.12;57.14
34712;BME280;20941;42.408;25.634;2023-02-01T11:08:57;99639.81;;;8.16;57.99
34712;BME280;20941;42.408;25.634;2023-02-01T11:11:23;99619.22;;;8.02;57.67
34712;BME280;20941;42.408;25.634;2023-02-01T11:13:57;99624.78;;;7.67;57.78
34712;BME280;20941;42.408;25.634;2023-02-01T11:16:35;99615.06;;;7.54;58.35
34712;BME280;20941;42.408;25.634;2023-02-01T11:19:02;99615.69;;;7.46;58.58
34712;BME280;20941;42.408;25.634;2023-02-01T11:21:29;99605.28;;;7.02;59.18
34712;BME280;20941;42.408;25.634;2023-02-01T11:23:55;99603.63;;;6.85;59.91
34712;BME280;20941;42.408;25.634;2023-02-01T11:26:26;99604.78;;;6.84;61.61
34712;BME280;20941;42.408;25.634;2023-02-01T11:29:05;99600.25;;;6.94;60.49
34712;BME280;20941;42.408;25.634;2023-02-01T11:31:35;99606.34;;;7.11;59.67
34712;BME280;20941;42.408;25.634;2023-02-01T11:34:23;99596.78;;;7.22;58.88
34712;BME280;20941;42.408;25.634;2023-02-01T11:36:50;99576.66;;;7.20;58.74
34712;BME280;20941;42.408;25.634;2023-02-01T11:39:30;99567.13;;;7.21;58.61
34712;BME280;20941;42.408;25.634;2023-02-01T11:42:06;99576.19;;;7.48;59.00
34712;BME280;20941;42.408;25.634;2023-02-01T11:44:40;99572.66;;;7.32;57.49
34712;BME280;20941;42.408;25.634;2023-02-01T11:47:31;99580.38;;;7.50;57.65
34712;BME280;20941;42.408;25.634;2023-02-01T11:50:13;99572.22;;;7.59;57.59
34712;BME280;20941;42.408;25.634;2023-02-01T11:58:50;99565.59;;;7.45;58.11
34712;BME280;20941;42.408;25.634;2023-02-01T12:01:34;99554.72;;;7.38;58.06
34712;BME280;20941;42.408;25.634;2023-02-01T12:12:31;99547.38;;;8.16;55.04
34712;BME280;20941;42.408;25.634;2023-02-01T12:42:46;99499.16;;;8.73;53.00
34712;BME280;20941;42.408;25.634;2023-02-01T12:50:49;99502.59;;;8.65;51.58
34712;BME280;20941;42.408;25.634;2023-02-01T12:53:24;99513.34;;;8.58;51.22
34712;BME280;20941;42.408;25.634;2023-02-01T12:56:01;99499.47;;;8.42;51.93
34712;BME280;20941;42.408;25.634;2023-02-01T12:58:48;99498.13;;;8.64;52.16
34712;BME280;20941;42.408;25.634;2023-02-01T13:01:45;99494.13;;;8.70;52.08
34712;BME280;20941;42.408;25.634;2023-02-01T13:04:34;99476.41;;;8.50;51.98
34712;BME280;20941;42.408;25.634;2023-02-01T13:10:18;99496.06;;;8.45;52.42
34712;BME280;20941;42.408;25.634;2023-02-01T13:13:02;99481.09;;;8.31;52.08
34712;BME280;20941;42.408;25.634;2023-02-01T13:16:20;99490.91;;;8.58;52.21
34712;BME280;20941;42.408;25.634;2023-02-01T13:18:20;99505.22;;;8.80;51.68
34712;BME280;20941;42.408;25.634;2023-02-01T13:21:25;99492.81;;;8.87;51.82
34712;BME280;20941;42.408;25.634;2023-02-01T13:23:53;99494.91;;;8.95;51.57
34712;BME280;20941;42.408;25.634;2023-02-01T13:26:18;99487.31;;;8.76;51.14
34712;BME280;20941;42.408;25.634;2023-02-01T13:34:33;99493.31;;;8.89;51.36
34712;BME280;20941;42.408;25.634;2023-02-01T13:42:47;99496.38;;;9.11;52.50
34712;BME280;20941;42.408;25.634;2023-02-01T13:45:17;99498.34;;;8.92;51.54
34712;BME280;20941;42.408;25.634;2023-02-01T13:47:47;99499.31;;;9.01;51.48
34712;BME280;20941;42.408;25.634;2023-02-01T13:53:18;99500.53;;;8.95;48.89
34712;BME280;20941;42.408;25.634;2023-02-01T13:55:57;99503.28;;;9.00;50.59
34712;BME280;20941;42.408;25.634;2023-02-01T13:58:36;99471.03;;;8.78;49.71
34712;BME280;20941;42.408;25.634;2023-02-01T14:03:55;99517.06;;;8.96;49.12
34712;BME280;20941;42.408;25.634;2023-02-01T14:09:15;99509.47;;;8.97;50.09
34712;BME280;20941;42.408;25.634;2023-02-01T14:16:38;99496.97;;;9.08;50.81
34712;BME280;20941;42.408;25.634;2023-02-01T14:19:08;99496.69;;;9.10;49.87
34712;BME280;20941;42.408;25.634;2023-02-01T14:21:55;99502.28;;;8.91;50.70
34712;BME280;20941;42.408;25.634;2023-02-01T14:24:27;99499.94;;;8.98;50.35
34712;BME280;20941;42.408;25.634;2023-02-01T14:26:54;99505.31;;;8.94;49.38
34712;BME280;20941;42.408;25.634;2023-02-01T14:29:32;99485.16;;;8.68;50.42
34712;BME280;20941;42.408;25.634;2023-02-01T14:32:02;99505.66;;;8.88;50.77
34712;BME280;20941;42.408;25.634;2023-02-01T14:42:18;99506.47;;;9.12;51.53
34712;BME280;20941;42.408;25.634;2023-02-01T14:44:47;99493.50;;;9.17;49.83
34712;BME280;20941;42.408;25.634;2023-02-01T14:49:55;99506.94;;;9.20;50.22
34712;BME280;20941;42.408;25.634;2023-02-01T14:52:28;99516.09;;;9.25;50.17
34712;BME280;20941;42.408;25.634;2023-02-01T14:54:59;99509.44;;;9.21;49.91
34712;BME280;20941;42.408;25.634;2023-02-01T14:57:27;99504.13;;;9.20;50.02
34712;BME280;20941;42.408;25.634;2023-02-01T15:00:20;99499.19;;;9.11;50.13
34712;BME280;20941;42.408;25.634;2023-02-01T15:02:48;99509.09;;;9.04;50.17
34712;BME280;20941;42.408;25.634;2023-02-01T15:05:26;99504.75;;;8.92;50.96
34712;BME280;20941;42.408;25.634;2023-02-01T15:07:55;99496.84;;;8.75;52.09
34712;BME280;20941;42.408;25.634;2023-02-01T15:10:22;99495.97;;;8.80;51.33
34712;BME280;20941;42.408;25.634;2023-02-01T15:12:48;99507.94;;;8.86;51.38
34712;BME280;20941;42.408;25.634;2023-02-01T15:15:19;99519.75;;;8.82;51.37
34712;BME280;20941;42.408;25.634;2023-02-01T15:17:56;99501.88;;;8.78;51.36
34712;BME280;20941;42.408;25.634;2023-02-01T15:20:27;99506.34;;;8.79;51.70
34712;BME280;20941;42.408;25.634;2023-02-01T15:23:02;99505.34;;;8.70;51.75
34712;BME280;20941;42.408;25.634;2023-02-01T15:25:38;99518.00;;;8.67;52.86
34712;BME280;20941;42.408;25.634;2023-02-01T15:28:05;99524.69;;;8.47;54.29
34712;BME280;20941;42.408;25.634;2023-02-01T15:30:35;99526.66;;;8.42;54.34
34712;BME280;20941;42.408;25.634;2023-02-01T15:35:43;99533.91;;;7.89;56.49
34712;BME280;20941;42.408;25.634;2023-02-01T15:41:20;99546.78;;;7.50;58.46
34712;BME280;20941;42.408;25.634;2023-02-01T15:46:47;99545.81;;;7.36;60.25